Time,TemperatureF,DewpointF,PressureIn,WindDirection,WindDirectionDegrees,WindSpeedMPH,WindSpeedGustMPH,Humidity,HourlyPrecipIn,Conditions,Clouds,dailyrainin,SoftwareType,DateUTC
2014-07-10 00:01:00,66.1,63.4,29.97,SW,215,0.0,0.0,91,0.00,,,0.00,Wunderground v.1.15,2014-07-10 05:01:00,
2014-07-10 00:11:00,65.6,63.2,29.98,SW,215,0.0,0.0,92,0.00,,,0.00,Wunderground v.1.15,2014-07-10 05:11:00,
2014-07-10 00:21:00,65.4,63.0,29.98,SW,215,0.0,0.0,92,0.00,,,0.00,Wunderground v.1.15,2014-07-10 05:21:00,
2014-07-10 00:31:00,65.7,63.0,29.98,SSW,203,0.0,0.0,91,0.00,,,0.00,Wunderground v.1.15,2014-07-10 05:31:00,
2014-07-10 00:41:00,66.1,63.1,29.98,South,188,0.0,0.0,90,0.00,,,0.00,Wunderground v.1.15,2014-07-10 05:41:00,
2014-07-10 00:51:00,66.2,62.9,29.98,SSE,163,0.0,0.0,89,0.00,,,0.00,Wunderground v.1.15,2014-07-10 05:51:00,
2014-07-10 01:01:00,66.0,63.0,29.98,SSW,208,0.0,0.0,90,0.00,,,0.00,Wunderground v.1.15,2014-07-10 06:01:00,
2014-07-10 01:11:00,65.9,62.9,29.98,SSW,203,0.0,0.0,90,0.00,,,0.00,Wunderground v.1.15,2014-07-10 06:11:00,
2014-07-10 01:21:00,66.0,63.0,29.98,SSW,201,0.0,0.0,90,0.00,,,0.00,Wunderground v.1.15,2014-07-10 06:21:00,
2014-07-10 01:31:00,65.9,62.9,29.98,SSW,207,0.0,0.0,90,0.00,,,0.00,Wunderground v.1.15,2014-07-10 06:31:00,
2014-07-10 01:41:00,65.7,62.7,29.98,SSW,207,0.0,0.0,90,0.00,,,0.00,Wunderground v.1.15,2014-07-10 06:41:00,
2014-07-10 01:51:00,65.6,62.6,29.98,SSW,200,0.0,0.0,90,0.00,,,0.00,Wunderground v.1.15,2014-07-10 06:51:00,
2014-07-10 02:01:00,65.4,62.4,29.98,SW,218,0.0,0.0,90,0.00,,,0.00,Wunderground v.1.15,2014-07-10 07:01:00,
2014-07-10 02:11:00,65.6,62.3,29.98,SSW,208,0.0,0.0,89,0.00,,,0.00,Wunderground v.1.15,2014-07-10 07:11:00,
2014-07-10 02:21:00,65.9,62.2,29.97,SSW,208,0.0,0.0,88,0.00,,,0.00,Wunderground v.1.15,2014-07-10 07:21:00,
2014-07-10 02:31:00,66.2,62.2,29.97,SSW,208,0.0,0.0,87,0.00,,,0.00,Wunderground v.1.15,2014-07-10 07:31:00,
2014-07-10 02:41:00,66.3,62.3,29.97,SSW,208,0.0,0.0,87,0.00,,,0.00,Wunderground v.1.15,2014-07-10 07:41:00,
2014-07-10 02:51:00,66.3,62.3,29.97,SSW,207,0.0,0.0,87,0.00,,,0.00,Wunderground v.1.15,2014-07-10 07:51:00,
2014-07-10 03:01:00,66.2,62.2,29.97,SSW,208,0.0,0.0,87,0.00,,,0.00,Wunderground v.1.15,2014-07-10 08:01:00,
2014-07-10 03:11:00,66.0,62.3,29.97,SSW,204,0.0,0.0,88,0.00,,,0.00,Wunderground v.1.15,2014-07-10 08:11:00,
2014-07-10 03:21:00,65.6,62.3,29.97,SSW,204,0.0,0.0,89,0.00,,,0.00,Wunderground v.1.15,2014-07-10 08:21:00,
2014-07-10 03:31:00,65.1,62.1,29.97,SSE,160,0.0,0.0,90,0.00,,,0.00,Wunderground v.1.15,2014-07-10 08:31:00,
2014-07-10 03:41:00,64.8,61.8,29.97,SSE,163,0.0,0.0,90,0.00,,,0.00,Wunderground v.1.15,2014-07-10 08:41:00,
2014-07-10 03:51:00,64.4,61.7,29.97,SSE,163,0.0,0.0,91,0.00,,,0.00,Wunderground v.1.15,2014-07-10 08:51:00,
2014-07-10 04:01:00,64.1,61.7,29.97,SSE,163,0.0,0.0,92,0.00,,,0.00,Wunderground v.1.15,2014-07-10 09:01:00,
2014-07-10 04:11:00,63.7,61.3,29.97,SSE,163,0.0,0.0,92,0.00,,,0.00,Wunderground v.1.15,2014-07-10 09:11:00,
2014-07-10 04:21:00,63.5,61.1,29.96,SSE,163,0.0,0.0,92,0.00,,,0.00,Wunderground v.1.15,2014-07-10 09:21:00,
2014-07-10 04:31:00,63.3,61.2,29.97,SW,225,0.0,0.0,93,0.00,,,0.00,Wunderground v.1.15,2014-07-10 09:31:00,
2014-07-10 04:41:00,63.0,60.9,29.97,SSW,204,0.0,0.0,93,0.00,,,0.00,Wunderground v.1.15,2014-07-10 09:41:00,
2014-07-10 04:51:00,62.7,60.6,29.97,SSW,204,0.0,0.0,93,0.00,,,0.00,Wunderground v.1.15,2014-07-10 09:51:00,
2014-07-10 05:01:00,62.4,60.3,29.97,SSW,204,0.0,0.0,93,0.00,,,0.00,Wunderground v.1.15,2014-07-10 10:01:00,
2014-07-10 05:11:00,62.1,60.4,29.97,SSW,204,0.0,0.0,94,0.00,,,0.00,Wunderground v.1.15,2014-07-10 10:11:00,
2014-07-10 05:21:00,61.9,60.2,29.98,SSW,204,0.0,0.0,94,0.00,,,0.00,Wunderground v.1.15,2014-07-10 10:21:00,
2014-07-10 05:31:00,61.6,59.9,29.98,SSW,204,0.0,0.0,94,0.00,,,0.00,Wunderground v.1.15,2014-07-10 10:31:00,
2014-07-10 05:41:00,61.4,60.0,29.99,SSW,204,0.0,0.0,95,0.00,,,0.00,Wunderground v.1.15,2014-07-10 10:41:00,
2014-07-10 05:51:00,61.2,59.8,29.99,SSW,204,0.0,0.0,95,0.00,,,0.00,Wunderground v.1.15,2014-07-10 10:51:00,
2014-07-10 06:01:00,61.0,59.6,29.99,SSW,204,0.0,0.0,95,0.00,,,0.00,Wunderground v.1.15,2014-07-10 11:01:00,
2014-07-10 06:11:00,60.9,59.8,30.00,SSW,204,0.0,0.0,96,0.00,,,0.00,Wunderground v.1.15,2014-07-10 11:11:00,
2014-07-10 06:21:00,60.8,59.4,30.00,SSW,204,0.0,0.0,95,0.00,,,0.00,Wunderground v.1.15,2014-07-10 11:21:00,
2014-07-10 06:31:00,60.8,59.7,30.00,SSW,204,0.0,0.0,96,0.00,,,0.00,Wunderground v.1.15,2014-07-10 11:31:00,
2014-07-10 06:41:00,60.9,59.8,30.01,SSW,204,0.0,0.0,96,0.00,,,0.00,Wunderground v.1.15,2014-07-10 11:41:00,
2014-07-10 06:51:00,61.1,60.0,30.00,SSW,204,0.0,0.0,96,0.00,,,0.00,Wunderground v.1.15,2014-07-10 11:51:00,
2014-07-10 07:01:00,61.3,60.2,30.01,SSW,204,0.0,0.0,96,0.00,,,0.00,Wunderground v.1.15,2014-07-10 12:01:00,
2014-07-10 07:11:00,61.9,60.7,30.01,SSW,201,0.0,0.0,96,0.00,,,0.00,Wunderground v.1.15,2014-07-10 12:11:00,
2014-07-10 07:21:00,63.0,61.5,30.01,SSE,165,0.0,0.0,95,0.00,,,0.00,Wunderground v.1.15,2014-07-10 12:21:00,
2014-07-10 07:31:00,64.2,62.1,30.01,SSE,167,0.0,0.0,93,0.00,,,0.00,Wunderground v.1.15,2014-07-10 12:31:00,
2014-07-10 07:41:00,65.1,62.1,30.02,SSE,165,0.0,0.0,90,0.00,,,0.00,Wunderground v.1.15,2014-07-10 12:41:00,
2014-07-10 07:51:00,65.9,62.2,30.02,SSW,201,0.0,0.0,88,0.00,,,0.00,Wunderground v.1.15,2014-07-10 12:51:00,
2014-07-10 08:01:00,66.6,62.6,30.02,SSW,203,0.0,0.0,87,0.00,,,0.00,Wunderground v.1.15,2014-07-10 13:01:00,
2014-07-10 08:11:00,67.2,62.9,30.02,SSE,160,0.0,0.0,86,0.00,,,0.00,Wunderground v.1.15,2014-07-10 13:11:00,
2014-07-10 08:21:00,67.5,62.8,30.02,SSW,198,2.0,2.0,85,0.00,,,0.00,Wunderground v.1.15,2014-07-10 13:21:00,
2014-07-10 08:31:00,68.0,63.3,30.02,SSE,162,2.0,2.0,85,0.00,,,0.00,Wunderground v.1.15,2014-07-10 13:31:00,
2014-07-10 08:41:00,68.7,63.7,30.03,South,176,1.0,2.0,84,0.00,,,0.00,Wunderground v.1.15,2014-07-10 13:41:00,
2014-07-10 08:51:00,69.6,63.5,30.03,South,176,2.0,2.0,81,0.00,,,0.00,Wunderground v.1.15,2014-07-10 13:51:00,
2014-07-10 09:01:00,70.2,63.4,30.03,SW,214,2.0,2.0,79,0.00,,,0.00,Wunderground v.1.15,2014-07-10 14:01:00,
2014-07-10 09:11:00,70.7,63.5,30.03,SW,236,3.0,3.0,78,0.00,,,0.00,Wunderground v.1.15,2014-07-10 14:11:00,
2014-07-10 09:21:00,71.2,64.0,30.03,SW,236,3.0,3.0,78,0.00,,,0.00,Wunderground v.1.15,2014-07-10 14:21:00,
2014-07-10 09:31:00,71.4,63.8,30.02,SSW,194,4.0,4.0,77,0.00,,,0.00,Wunderground v.1.15,2014-07-10 14:31:00,
2014-07-10 09:41:00,72.0,64.0,30.03,South,184,4.0,4.0,76,0.00,,,0.00,Wunderground v.1.15,2014-07-10 14:41:00,
2014-07-10 09:51:00,72.7,64.3,30.02,WSW,240,4.0,4.0,75,0.00,,,0.00,Wunderground v.1.15,2014-07-10 14:51:00,
2014-07-10 10:01:00,73.3,64.5,30.02,South,188,3.0,5.0,74,0.00,,,0.00,Wunderground v.1.15,2014-07-10 15:01:00,
2014-07-10 10:11:00,74.3,65.5,30.02,SW,233,2.0,3.0,74,0.00,,,0.00,Wunderground v.1.15,2014-07-10 15:11:00,
2014-07-10 10:21:00,74.6,65.0,30.02,WSW,255,4.0,4.0,72,0.00,,,0.00,Wunderground v.1.15,2014-07-10 15:21:00,
2014-07-10 10:31:00,75.2,64.3,30.01,South,185,3.0,4.0,69,0.00,,,0.00,Wunderground v.1.15,2014-07-10 15:31:00,
2014-07-10 10:41:00,75.8,64.5,30.01,WSW,253,4.0,5.0,68,0.00,,,0.00,Wunderground v.1.15,2014-07-10 15:41:00,
2014-07-10 10:51:00,76.3,65.0,30.02,South,190,3.0,4.0,68,0.00,,,0.00,Wunderground v.1.15,2014-07-10 15:51:00,
2014-07-10 11:01:00,77.0,65.6,30.02,SSW,206,3.0,3.0,68,0.00,,,0.00,Wunderground v.1.15,2014-07-10 16:01:00,
2014-07-10 11:11:00,78.1,64.9,30.02,SSW,206,2.0,4.0,64,0.00,,,0.00,Wunderground v.1.15,2014-07-10 16:11:00,
2014-07-10 11:21:00,77.9,63.8,30.02,South,190,4.0,4.0,62,0.00,,,0.00,Wunderground v.1.15,2014-07-10 16:21:00,
2014-07-10 11:31:00,78.6,65.8,30.02,SW,224,3.0,4.0,65,0.00,,,0.00,Wunderground v.1.15,2014-07-10 16:31:00,
2014-07-10 11:41:00,79.2,64.6,30.01,SW,225,4.0,5.0,61,0.00,,,0.00,Wunderground v.1.15,2014-07-10 16:41:00,
2014-07-10 11:51:00,79.4,64.8,30.01,SE,139,4.0,4.0,61,0.00,,,0.00,Wunderground v.1.15,2014-07-10 16:51:00,
2014-07-10 12:01:00,80.0,65.3,30.01,SSE,158,4.0,4.0,61,0.00,,,0.00,Wunderground v.1.15,2014-07-10 17:01:00,